sensor_id;sensor_type;location;lat;lon;timestamp;P1;durP1;ratioP1;P2;durP2;ratioP2
49820;SDS011;36893;52.520;13.450;2023-10-19T00:07:02;3.47;;;1.48;;
49820;SDS011;36893;52.520;13.450;2023-10-19T00:17:04;2.10;;;1.50;;
49820;SDS011;36893;52.520;13.450;2023-10-19T00:27:10;3.88;;;1.80;;
49820;SDS011;36893;52.520;13.450;2023-10-19T00:37:19;3.72;;;1.98;;
49820;SDS011;36893;52.520;13.450;2023-10-19T00:47:32;4.93;;;1.50;;
49820;SDS011;36893;52.520;13.450;2023-10-19T00:57:40;3.28;;;1.33;;
49820;SDS011;36893;52.520;13.450;2023-10-19T01:07:46;3.60;;;1.75;;
49820;SDS011;36893;52.520;13.450;2023-10-19T01:17:53;2.47;;;1.50;;
49820;SDS011;36893;52.520;13.450;2023-10-19T01:27:56;3.78;;;1.45;;
49820;SDS011;36893;52.520;13.450;2023-10-19T01:37:57;3.35;;;1.40;;
49820;SDS011;36893;52.520;13.450;2023-10-19T01:48:00;4.57;;;1.33;;
49820;SDS011;36893;52.520;13.450;2023-10-19T01:58:00;2.57;;;1.30;;
49820;SDS011;36893;52.520;13.450;2023-10-19T02:08:01;4.20;;;1.50;;
49820;SDS011;36893;52.520;13.450;2023-10-19T02:18:02;4.10;;;2.05;;
49820;SDS011;36893;52.520;13.450;2023-10-19T02:28:04;4.90;;;1.40;;
49820;SDS011;36893;52.520;13.450;2023-10-19T02:38:09;3.38;;;1.88;;
49820;SDS011;36893;52.520;13.450;2023-10-19T02:48:09;1.77;;;1.10;;
49820;SDS011;36893;52.520;13.450;2023-10-19T02:58:12;3.63;;;1.40;;
49820;SDS011;36893;52.520;13.450;2023-10-19T03:08:13;2.60;;;1.48;;
49820;SDS011;36893;52.520;13.450;2023-10-19T03:18:15;3.90;;;1.60;;
49820;SDS011;36893;52.520;13.450;2023-10-19T03:28:16;2.27;;;1.20;;
49820;SDS011;36893;52.520;13.450;2023-10-19T03:38:18;3.67;;;1.95;;
49820;SDS011;36893;52.520;13.450;2023-10-19T03:48:22;3.00;;;1.63;;
49820;SDS011;36893;52.520;13.450;2023-10-19T03:58:38;3.50;;;1.58;;
49820;SDS011;36893;52.520;13.450;2023-10-19T04:08:41;2.90;;;1.27;;
49820;SDS011;36893;52.520;13.450;2023-10-19T04:18:50;3.47;;;1.42;;
49820;SDS011;36893;52.520;13.450;2023-10-19T04:28:51;2.87;;;1.20;;
49820;SDS011;36893;52.520;13.450;2023-10-19T04:38:51;3.30;;;1.60;;
49820;SDS011;36893;52.520;13.450;2023-10-19T04:48:52;2.60;;;1.47;;
49820;SDS011;36893;52.520;13.450;2023-10-19T04:58:52;3.50;;;1.67;;
49820;SDS011;36893;52.520;13.450;2023-10-19T05:08:53;5.87;;;1.73;;
49820;SDS011;36893;52.520;13.450;2023-10-19T05:18:54;3.23;;;1.67;;
49820;SDS011;36893;52.520;13.450;2023-10-19T05:28:54;3.13;;;1.60;;
49820;SDS011;36893;52.520;13.450;2023-10-19T05:38:55;2.90;;;1.70;;
49820;SDS011;36893;52.520;13.450;2023-10-19T05:48:56;5.37;;;2.20;;
49820;SDS011;36893;52.520;13.450;2023-10-19T05:58:57;5.22;;;1.83;;
49820;SDS011;36893;52.520;13.450;2023-10-19T06:08:58;4.87;;;2.10;;
49820;SDS011;36893;52.520;13.450;2023-10-19T06:19:00;4.68;;;2.08;;
49820;SDS011;36893;52.520;13.450;2023-10-19T06:29:02;6.22;;;2.03;;
49820;SDS011;36893;52.520;13.450;2023-10-19T06:39:03;4.43;;;1.50;;
49820;SDS011;36893;52.520;13.450;2023-10-19T06:49:06;4.88;;;1.88;;
49820;SDS011;36893;52.520;13.450;2023-10-19T06:59:07;4.22;;;1.88;;
49820;SDS011;36893;52.520;13.450;2023-10-19T07:09:08;4.07;;;2.20;;
49820;SDS011;36893;52.520;13.450;2023-10-19T07:19:10;8.18;;;2.17;;
49820;SDS011;36893;52.520;13.450;2023-10-19T07:29:11;7.40;;;2.03;;
49820;SDS011;36893;52.520;13.450;2023-10-19T07:39:14;3.22;;;1.88;;
49820;SDS011;36893;52.520;13.450;2023-10-19T07:49:19;11.77;;;2.35;;
49820;SDS011;36893;52.520;13.450;2023-10-19T07:59:19;4.37;;;1.80;;
49820;SDS011;36893;52.520;13.450;2023-10-19T08:09:20;4.43;;;2.20;;
49820;SDS011;36893;52.520;13.450;2023-10-19T08:19:22;6.03;;;2.10;;
49820;SDS011;36893;52.520;13.450;2023-10-19T08:29:23;5.00;;;2.13;;
49820;SDS011;36893;52.520;13.450;2023-10-19T08:39:24;12.93;;;2.33;;
49820;SDS011;36893;52.520;13.450;2023-10-19T08:49:24;7.77;;;2.00;;
49820;SDS011;36893;52.520;13.450;2023-10-19T08:59:28;6.15;;;2.00;;
49820;SDS011;36893;52.520;13.450;2023-10-19T09:09:29;7.10;;;2.33;;
49820;SDS011;36893;52.520;13.450;2023-10-19T09:19:36;4.83;;;2.00;;
49820;SDS011;36893;52.520;13.450;2023-10-19T09:29:48;9.32;;;2.38;;
49820;SDS011;36893;52.520;13.450;2023-10-19T09:39:51;14.20;;;2.92;;
49820;SDS011;36893;52.520;13.450;2023-10-19T09:49:52;4.53;;;1.85;;
49820;SDS011;36893;52.520;13.450;2023-10-19T09:59:56;8.52;;;2.58;;
49820;SDS011;36893;52.520;13.450;2023-10-19T10:10:11;4.78;;;2.15;;
49820;SDS011;36893;52.520;13.450;2023-10-19T10:30:20;7.13;;;2.97;;
49820;SDS011;36893;52.520;13.450;2023-10-19T10:40:20;12.00;;;3.77;;
49820;SDS011;36893;52.520;13.450;2023-10-19T10:50:21;12.83;;;4.37;;
49820;SDS011;36893;52.520;13.450;2023-10-19T11:00:22;13.40;;;4.17;;
49820;SDS011;36893;52.520;13.450;2023-10-19T11:10:26;10.52;;;3.85;;
49820;SDS011;36893;52.520;13.450;2023-10-19T11:20:30;10.50;;;3.63;;
49820;SDS011;36893;52.520;13.450;2023-10-19T11:30:31;14.45;;;4.70;;
49820;SDS011;36893;52.520;13.450;2023-10-19T11:40:32;6.70;;;3.25;;
49820;SDS011;36893;52.520;13.450;2023-10-19T11:50:33;9.67;;;3.20;;
49820;SDS011;36893;52.520;13.450;2023-10-19T12:00:33;12.40;;;4.13;;
49820;SDS011;36893;52.520;13.450;2023-10-19T12:10:37;10.30;;;3.22;;
49820;SDS011;36893;52.520;13.450;2023-10-19T12:20:38;11.60;;;3.73;;
49820;SDS011;36893;52.520;13.450;2023-10-19T12:30:39;6.13;;;2.90;;
49820;SDS011;36893;52.520;13.450;2023-10-19T12:40:45;7.82;;;3.25;;
49820;SDS011;36893;52.520;13.450;2023-10-19T12:50:47;6.47;;;2.90;;
49820;SDS011;36893;52.520;13.450;2023-10-19T13:00:48;7.10;;;3.15;;
49820;SDS011;36893;52.520;13.450;2023-10-19T13:10:48;6.20;;;3.10;;
49820;SDS011;36893;52.520;13.450;2023-10-19T13:20:50;9.15;;;2.97;;
49820;SDS011;36893;52.520;13.450;2023-10-19T13:40:54;9.23;;;3.40;;
49820;SDS011;36893;52.520;13.450;2023-10-19T13:50:55;5.70;;;2.93;;
49820;SDS011;36893;52.520;13.450;2023-10-19T14:01:00;9.70;;;3.25;;
49820;SDS011;36893;52.520;13.450;2023-10-19T14:11:01;8.45;;;2.97;;
49820;SDS011;36893;52.520;13.450;2023-10-19T14:21:16;8.77;;;3.35;;
49820;SDS011;36893;52.520;13.450;2023-10-19T14:31:18;9.60;;;2.95;;
49820;SDS011;36893;52.520;13.450;2023-10-19T14:41:20;9.75;;;3.22;;
49820;SDS011;36893;52.520;13.450;2023-10-19T14:51:20;11.27;;;3.13;;
49820;SDS011;36893;52.520;13.450;2023-10-19T15:01:21;7.10;;;3.50;;
49820;SDS011;36893;52.520;13.450;2023-10-19T15:11:25;5.40;;;2.47;;
49820;SDS011;36893;52.520;13.450;2023-10-19T15:21:26;12.18;;;3.97;;
49820;SDS011;36893;52.520;13.450;2023-10-19T15:31:27;8.95;;;3.53;;
49820;SDS011;36893;52.520;13.450;2023-10-19T15:41:28;8.03;;;3.27;;
49820;SDS011;36893;52.520;13.450;2023-10-19T15:51:29;9.00;;;3.23;;
49820;SDS011;36893;52.520;13.450;2023-10-19T16:01:29;6.90;;;3.00;;
49820;SDS011;36893;52.520;13.450;2023-10-19T16:11:30;5.60;;;2.97;;
49820;SDS011;36893;52.520;13.450;2023-10-19T16:21:31;6.93;;;3.27;;
49820;SDS011;36893;52.520;13.450;2023-10-19T16:31:32;7.83;;;3.67;;
49820;SDS011;36893;52.520;13.450;2023-10-19T16:41:34;9.20;;;3.70;;
49820;SDS011;36893;52.520;13.450;2023-10-19T16:51:37;11.90;;;3.30;;
49820;SDS011;36893;52.520;13.450;2023-10-19T17:01:43;7.95;;;3.60;;
49820;SDS011;36893;52.520;13.450;2023-10-19T17:11:45;6.70;;;2.97;;
49820;SDS011;36893;52.520;13.450;2023-10-19T17:21:47;6.47;;;3.23;;
49820;SDS011;36893;52.520;13.450;2023-10-19T17:31:47;13.10;;;3.77;;
49820;SDS011;36893;52.520;13.450;2023-10-19T17:41:49;7.22;;;3.53;;
49820;SDS011;36893;52.520;13.450;2023-10-19T17:51:49;7.97;;;3.30;;
49820;SDS011;36893;52.520;13.450;2023-10-19T18:01:50;9.90;;;3.40;;
49820;SDS011;36893;52.520;13.450;2023-10-19T18:11:51;5.17;;;2.97;;
49820;SDS011;36893;52.520;13.450;2023-10-19T18:21:52;7.43;;;3.47;;
49820;SDS011;36893;52.520;13.450;2023-10-19T18:31:55;6.82;;;3.55;;
49820;SDS011;36893;52.520;13.450;2023-10-19T18:41:55;8.50;;;3.70;;
49820;SDS011;36893;52.520;13.450;2023-10-19T18:51:56;10.00;;;4.38;;
49820;SDS011;36893;52.520;13.450;2023-10-19T19:01:57;6.63;;;3.17;;
49820;SDS011;36893;52.520;13.450;2023-10-19T19:11:59;7.40;;;3.45;;
49820;SDS011;36893;52.520;13.450;2023-10-19T19:22:00;9.00;;;3.35;;
49820;SDS011;36893;52.520;13.450;2023-10-19T19:32:00;5.57;;;2.77;;
49820;SDS011;36893;52.520;13.450;2023-10-19T19:42:01;8.97;;;3.30;;
49820;SDS011;36893;52.520;13.450;2023-10-19T19:52:01;6.83;;;3.27;;
49820;SDS011;36893;52.520;13.450;2023-10-19T20:02:02;13.10;;;3.13;;
49820;SDS011;36893;52.520;13.450;2023-10-19T20:12:03;4.68;;;3.13;;
49820;SDS011;36893;52.520;13.450;2023-10-19T20:22:04;6.30;;;3.25;;
49820;SDS011;36893;52.520;13.450;2023-10-19T20:32:05;6.20;;;2.83;;
49820;SDS011;36893;52.520;13.450;2023-10-19T20:42:06;5.73;;;2.90;;
49820;SDS011;36893;52.520;13.450;2023-10-19T20:52:06;5.10;;;2.70;;
49820;SDS011;36893;52.520;13.450;2023-10-19T21:02:09;5.53;;;2.83;;
49820;SDS011;36893;52.520;13.450;2023-10-19T21:12:11;6.38;;;2.97;;
49820;SDS011;36893;52.520;13.450;2023-10-19T21:22:12;6.13;;;3.10;;
49820;SDS011;36893;52.520;13.450;2023-10-19T21:32:12;6.10;;;2.80;;
49820;SDS011;36893;52.520;13.450;2023-10-19T21:42:13;5.07;;;2.77;;
49820;SDS011;36893;52.520;13.450;2023-10-19T21:52:13;6.83;;;2.83;;
49820;SDS011;36893;52.520;13.450;2023-10-19T22:02:16;6.35;;;2.80;;
49820;SDS011;36893;52.520;13.450;2023-10-19T22:12:17;5.67;;;2.77;;
49820;SDS011;36893;52.520;13.450;2023-10-19T22:22:18;7.18;;;3.05;;
49820;SDS011;36893;52.520;13.450;2023-10-19T22:32:19;10.35;;;3.40;;
49820;SDS011;36893;52.520;13.450;2023-10-19T22:42:21;9.85;;;3.00;;
49820;SDS011;36893;52.520;13.450;2023-10-19T22:52:22;7.60;;;2.70;;
49820;SDS011;36893;52.520;13.450;2023-10-19T23:02:26;6.57;;;2.93;;
49820;SDS011;36893;52.520;13.450;2023-10-19T23:12:26;5.00;;;2.40;;
49820;SDS011;36893;52.520;13.450;2023-10-19T23:22:27;5.83;;;3.07;;
49820;SDS011;36893;52.520;13.450;2023-10-19T23:32:28;8.83;;;2.27;;
49820;SDS011;36893;52.520;13.450;2023-10-19T23:42:29;11.67;;;2.57;;
49820;SDS011;36893;52.520;13.450;2023-10-19T23:52:29;10.60;;;3.08;;
